Terminal Aerodrome Forecast
Issued by NWS Albany, NY

Home | Current Version | Previous Version | Text Only | Print | Product List | Glossary On
Versions: 1 2 3 4 5 6 7 8 9 10 11 12 13 14 15 16
000
FTUS41 KALY 032325
TAFPOU
TAF
KPOU 032325Z 0400/0424 20005KT P6SM VCSH BKN050
     FM040400 VRB03KT P6SM SCT050
     FM040800 VRB02KT 5SM BR BKN030
     FM041200 24005KT P6SM SCT040
     FM041800 24008G18KT P6SM SCT050=

USA.gov is the U.S. government's official web portal to all federal, state and local government web resources and services.